sensor_id;sensor_type;location;lat;lon;timestamp;P1;durP1;ratioP1;P2;durP2;ratioP2
58260;SDS011;44058;52.898;6.502;2023-05-14T00:02:24;10.48;;;7.82;;
58260;SDS011;44058;52.898;6.502;2023-05-14T00:04:51;9.75;;;7.88;;
58260;SDS011;44058;52.898;6.502;2023-05-14T00:07:17;10.73;;;7.70;;
58260;SDS011;44058;52.898;6.502;2023-05-14T00:09:43;9.50;;;7.35;;
58260;SDS011;44058;52.898;6.502;2023-05-14T00:12:09;12.48;;;8.15;;
58260;SDS011;44058;52.898;6.502;2023-05-14T00:14:35;11.70;;;7.93;;
58260;SDS011;44058;52.898;6.502;2023-05-14T00:17:01;13.20;;;7.50;;
58260;SDS011;44058;52.898;6.502;2023-05-14T00:19:27;8.65;;;6.90;;
58260;SDS011;44058;52.898;6.502;2023-05-14T00:21:54;12.32;;;7.20;;
58260;SDS011;44058;52.898;6.502;2023-05-14T00:24:20;9.55;;;7.88;;
58260;SDS011;44058;52.898;6.502;2023-05-14T00:26:46;11.13;;;7.40;;
58260;SDS011;44058;52.898;6.502;2023-05-14T00:29:12;9.73;;;7.60;;
58260;SDS011;44058;52.898;6.502;2023-05-14T00:31:38;11.40;;;8.00;;
58260;SDS011;44058;52.898;6.502;2023-05-14T00:34:04;10.25;;;8.13;;
58260;SDS011;44058;52.898;6.502;2023-05-14T00:36:30;14.40;;;7.72;;
58260;SDS011;44058;52.898;6.502;2023-05-14T00:38:56;12.23;;;8.05;;
58260;SDS011;44058;52.898;6.502;2023-05-14T00:41:22;9.43;;;8.00;;
58260;SDS011;44058;52.898;6.502;2023-05-14T00:43:48;10.30;;;7.70;;
58260;SDS011;44058;52.898;6.502;2023-05-14T00:46:14;9.15;;;7.65;;
58260;SDS011;44058;52.898;6.502;2023-05-14T00:48:41;10.98;;;8.35;;
58260;SDS011;44058;52.898;6.502;2023-05-14T00:51:07;11.20;;;7.55;;
58260;SDS011;44058;52.898;6.502;2023-05-14T00:53:33;12.93;;;8.18;;
58260;SDS011;44058;52.898;6.502;2023-05-14T00:56:00;10.40;;;7.80;;
58260;SDS011;44058;52.898;6.502;2023-05-14T00:58:27;13.93;;;8.70;;
58260;SDS011;44058;52.898;6.502;2023-05-14T01:00:53;9.38;;;8.02;;
58260;SDS011;44058;52.898;6.502;2023-05-14T01:03:19;9.00;;;7.85;;
58260;SDS011;44058;52.898;6.502;2023-05-14T01:05:57;13.82;;;8.80;;
58260;SDS011;44058;52.898;6.502;2023-05-14T01:11:12;11.13;;;8.65;;
58260;SDS011;44058;52.898;6.502;2023-05-14T01:16:05;9.90;;;8.00;;
58260;SDS011;44058;52.898;6.502;2023-05-14T01:18:35;11.63;;;8.32;;
58260;SDS011;44058;52.898;6.502;2023-05-14T01:21:01;12.52;;;8.35;;
58260;SDS011;44058;52.898;6.502;2023-05-14T01:23:27;11.82;;;8.68;;
58260;SDS011;44058;52.898;6.502;2023-05-14T01:25:53;11.77;;;8.43;;
58260;SDS011;44058;52.898;6.502;2023-05-14T01:28:23;10.35;;;8.45;;
58260;SDS011;44058;52.898;6.502;2023-05-14T01:31:24;10.70;;;8.85;;
58260;SDS011;44058;52.898;6.502;2023-05-14T01:33:43;13.60;;;8.85;;
58260;SDS011;44058;52.898;6.502;2023-05-14T01:38:38;11.60;;;8.73;;
58260;SDS011;44058;52.898;6.502;2023-05-14T01:41:09;10.75;;;8.55;;
58260;SDS011;44058;52.898;6.502;2023-05-14T01:43:36;11.20;;;9.05;;
58260;SDS011;44058;52.898;6.502;2023-05-14T01:46:03;13.95;;;9.18;;
58260;SDS011;44058;52.898;6.502;2023-05-14T01:48:29;11.15;;;7.97;;
58260;SDS011;44058;52.898;6.502;2023-05-14T01:50:55;14.05;;;8.82;;
58260;SDS011;44058;52.898;6.502;2023-05-14T01:53:21;11.82;;;8.50;;
58260;SDS011;44058;52.898;6.502;2023-05-14T01:55:47;12.38;;;8.43;;
58260;SDS011;44058;52.898;6.502;2023-05-14T01:58:14;10.63;;;7.65;;
58260;SDS011;44058;52.898;6.502;2023-05-14T02:00:40;9.40;;;8.00;;
58260;SDS011;44058;52.898;6.502;2023-05-14T02:03:06;11.25;;;8.60;;
58260;SDS011;44058;52.898;6.502;2023-05-14T02:05:32;10.48;;;8.23;;
58260;SDS011;44058;52.898;6.502;2023-05-14T02:07:58;10.77;;;7.90;;
58260;SDS011;44058;52.898;6.502;2023-05-14T02:10:24;11.20;;;8.40;;
58260;SDS011;44058;52.898;6.502;2023-05-14T02:12:50;11.27;;;7.78;;
58260;SDS011;44058;52.898;6.502;2023-05-14T02:15:16;9.02;;;7.60;;
58260;SDS011;44058;52.898;6.502;2023-05-14T02:17:42;11.25;;;9.15;;
58260;SDS011;44058;52.898;6.502;2023-05-14T02:20:08;12.18;;;8.13;;
58260;SDS011;44058;52.898;6.502;2023-05-14T02:22:35;13.73;;;8.05;;
58260;SDS011;44058;52.898;6.502;2023-05-14T02:25:01;12.40;;;8.23;;
58260;SDS011;44058;52.898;6.502;2023-05-14T02:27:27;8.55;;;7.15;;
58260;SDS011;44058;52.898;6.502;2023-05-14T02:29:53;10.07;;;7.78;;
58260;SDS011;44058;52.898;6.502;2023-05-14T02:32:20;10.30;;;8.10;;
58260;SDS011;44058;52.898;6.502;2023-05-14T02:34:46;8.15;;;7.28;;
58260;SDS011;44058;52.898;6.502;2023-05-14T02:37:12;9.65;;;7.68;;
58260;SDS011;44058;52.898;6.502;2023-05-14T02:39:38;9.60;;;7.68;;
58260;SDS011;44058;52.898;6.502;2023-05-14T02:42:05;13.10;;;8.20;;
58260;SDS011;44058;52.898;6.502;2023-05-14T02:44:31;10.70;;;7.65;;
58260;SDS011;44058;52.898;6.502;2023-05-14T02:46:57;11.40;;;8.80;;
58260;SDS011;44058;52.898;6.502;2023-05-14T02:49:23;10.63;;;7.63;;
58260;SDS011;44058;52.898;6.502;2023-05-14T02:51:49;8.85;;;7.57;;
58260;SDS011;44058;52.898;6.502;2023-05-14T02:54:15;9.40;;;7.95;;
58260;SDS011;44058;52.898;6.502;2023-05-14T02:56:41;10.35;;;7.72;;
58260;SDS011;44058;52.898;6.502;2023-05-14T02:59:08;11.05;;;7.75;;
58260;SDS011;44058;52.898;6.502;2023-05-14T03:01:34;10.18;;;8.07;;
58260;SDS011;44058;52.898;6.502;2023-05-14T03:04:00;11.00;;;8.25;;
58260;SDS011;44058;52.898;6.502;2023-05-14T03:06:26;9.23;;;7.68;;
58260;SDS011;44058;52.898;6.502;2023-05-14T03:08:52;10.13;;;7.68;;
58260;SDS011;44058;52.898;6.502;2023-05-14T03:11:18;9.35;;;7.32;;
58260;SDS011;44058;52.898;6.502;2023-05-14T03:13:44;9.15;;;7.07;;
58260;SDS011;44058;52.898;6.502;2023-05-14T03:16:10;9.07;;;8.10;;
58260;SDS011;44058;52.898;6.502;2023-05-14T03:18:36;9.63;;;7.45;;
58260;SDS011;44058;52.898;6.502;2023-05-14T03:21:03;10.57;;;7.82;;
58260;SDS011;44058;52.898;6.502;2023-05-14T03:23:29;8.18;;;7.25;;
58260;SDS011;44058;52.898;6.502;2023-05-14T03:25:59;9.27;;;7.20;;
58260;SDS011;44058;52.898;6.502;2023-05-14T03:28:26;11.82;;;7.60;;
58260;SDS011;44058;52.898;6.502;2023-05-14T03:30:52;11.55;;;7.30;;
58260;SDS011;44058;52.898;6.502;2023-05-14T03:33:18;9.57;;;6.68;;
58260;SDS011;44058;52.898;6.502;2023-05-14T03:35:45;9.38;;;7.30;;
58260;SDS011;44058;52.898;6.502;2023-05-14T03:38:11;11.20;;;7.22;;
58260;SDS011;44058;52.898;6.502;2023-05-14T03:40:37;9.98;;;7.15;;
58260;SDS011;44058;52.898;6.502;2023-05-14T03:43:03;8.98;;;7.20;;
58260;SDS011;44058;52.898;6.502;2023-05-14T03:45:29;9.05;;;7.00;;
58260;SDS011;44058;52.898;6.502;2023-05-14T03:47:55;11.15;;;6.72;;
58260;SDS011;44058;52.898;6.502;2023-05-14T03:50:21;8.85;;;7.13;;
58260;SDS011;44058;52.898;6.502;2023-05-14T03:52:50;7.50;;;6.70;;
58260;SDS011;44058;52.898;6.502;2023-05-14T03:55:17;9.02;;;7.00;;
58260;SDS011;44058;52.898;6.502;2023-05-14T03:57:43;8.77;;;7.22;;
58260;SDS011;44058;52.898;6.502;2023-05-14T04:00:10;8.40;;;6.97;;
58260;SDS011;44058;52.898;6.502;2023-05-14T04:02:37;9.57;;;7.53;;
58260;SDS011;44058;52.898;6.502;2023-05-14T04:05:03;7.72;;;7.00;;
58260;SDS011;44058;52.898;6.502;2023-05-14T04:07:29;8.85;;;7.35;;
58260;SDS011;44058;52.898;6.502;2023-05-14T04:09:55;9.45;;;6.75;;
58260;SDS011;44058;52.898;6.502;2023-05-14T04:12:21;8.48;;;6.72;;
58260;SDS011;44058;52.898;6.502;2023-05-14T04:14:47;9.63;;;6.93;;
58260;SDS011;44058;52.898;6.502;2023-05-14T04:17:13;10.10;;;6.85;;
58260;SDS011;44058;52.898;6.502;2023-05-14T04:19:39;7.93;;;6.80;;
58260;SDS011;44058;52.898;6.502;2023-05-14T04:22:06;10.13;;;7.25;;
58260;SDS011;44058;52.898;6.502;2023-05-14T04:24:32;10.82;;;7.40;;
58260;SDS011;44058;52.898;6.502;2023-05-14T04:26:58;8.07;;;6.80;;
58260;SDS011;44058;52.898;6.502;2023-05-14T04:29:24;7.25;;;6.32;;
58260;SDS011;44058;52.898;6.502;2023-05-14T04:31:50;9.52;;;6.55;;
58260;SDS011;44058;52.898;6.502;2023-05-14T04:34:16;8.38;;;7.13;;
58260;SDS011;44058;52.898;6.502;2023-05-14T04:36:42;9.05;;;7.70;;
58260;SDS011;44058;52.898;6.502;2023-05-14T04:39:08;9.15;;;7.38;;
58260;SDS011;44058;52.898;6.502;2023-05-14T04:41:36;10.48;;;7.50;;
58260;SDS011;44058;52.898;6.502;2023-05-14T04:44:02;9.40;;;7.00;;
58260;SDS011;44058;52.898;6.502;2023-05-14T04:46:28;7.88;;;6.78;;
58260;SDS011;44058;52.898;6.502;2023-05-14T04:48:55;11.35;;;7.45;;
58260;SDS011;44058;52.898;6.502;2023-05-14T04:51:22;13.07;;;8.07;;
58260;SDS011;44058;52.898;6.502;2023-05-14T04:53:48;8.20;;;7.10;;
58260;SDS011;44058;52.898;6.502;2023-05-14T04:56:14;11.00;;;7.82;;
58260;SDS011;44058;52.898;6.502;2023-05-14T04:58:40;9.77;;;7.60;;
58260;SDS011;44058;52.898;6.502;2023-05-14T05:01:07;8.88;;;7.40;;
58260;SDS011;44058;52.898;6.502;2023-05-14T05:03:33;10.50;;;7.03;;
58260;SDS011;44058;52.898;6.502;2023-05-14T05:05:59;10.77;;;7.40;;
58260;SDS011;44058;52.898;6.502;2023-05-14T05:08:25;13.10;;;7.78;;
58260;SDS011;44058;52.898;6.502;2023-05-14T05:10:51;11.10;;;8.60;;
58260;SDS011;44058;52.898;6.502;2023-05-14T05:13:17;13.57;;;8.32;;
58260;SDS011;44058;52.898;6.502;2023-05-14T05:15:43;12.77;;;8.70;;
58260;SDS011;44058;52.898;6.502;2023-05-14T05:18:09;11.10;;;9.07;;
58260;SDS011;44058;52.898;6.502;2023-05-14T05:20:35;14.85;;;9.25;;
58260;SDS011;44058;52.898;6.502;2023-05-14T05:23:02;14.82;;;9.52;;
58260;SDS011;44058;52.898;6.502;2023-05-14T05:25:28;17.73;;;9.82;;
58260;SDS011;44058;52.898;6.502;2023-05-14T05:27:54;14.93;;;9.73;;
58260;SDS011;44058;52.898;6.502;2023-05-14T05:30:20;16.13;;;10.13;;
58260;SDS011;44058;52.898;6.502;2023-05-14T05:32:47;16.58;;;9.98;;
58260;SDS011;44058;52.898;6.502;2023-05-14T05:35:13;11.65;;;9.65;;
58260;SDS011;44058;52.898;6.502;2023-05-14T05:37:39;15.73;;;10.00;;
58260;SDS011;44058;52.898;6.502;2023-05-14T05:40:06;16.67;;;10.60;;
58260;SDS011;44058;52.898;6.502;2023-05-14T05:42:33;10.85;;;9.27;;
58260;SDS011;44058;52.898;6.502;2023-05-14T05:44:59;15.90;;;10.50;;
58260;SDS011;44058;52.898;6.502;2023-05-14T05:47:25;16.33;;;10.52;;
58260;SDS011;44058;52.898;6.502;2023-05-14T05:49:51;14.50;;;10.13;;
58260;SDS011;44058;52.898;6.502;2023-05-14T05:52:18;15.40;;;10.90;;
58260;SDS011;44058;52.898;6.502;2023-05-14T05:54:44;17.25;;;10.85;;
58260;SDS011;44058;52.898;6.502;2023-05-14T05:57:10;16.95;;;10.30;;
58260;SDS011;44058;52.898;6.502;2023-05-14T05:59:36;17.45;;;10.77;;
58260;SDS011;44058;52.898;6.502;2023-05-14T06:02:03;17.42;;;9.82;;
58260;SDS011;44058;52.898;6.502;2023-05-14T06:04:29;14.07;;;10.27;;
58260;SDS011;44058;52.898;6.502;2023-05-14T06:06:55;13.80;;;10.65;;
58260;SDS011;44058;52.898;6.502;2023-05-14T06:09:21;16.48;;;10.02;;
58260;SDS011;44058;52.898;6.502;2023-05-14T06:11:48;14.60;;;9.00;;
58260;SDS011;44058;52.898;6.502;2023-05-14T06:14:14;15.65;;;9.93;;
58260;SDS011;44058;52.898;6.502;2023-05-14T06:16:40;15.98;;;10.63;;
58260;SDS011;44058;52.898;6.502;2023-05-14T06:19:06;12.20;;;9.75;;
58260;SDS011;44058;52.898;6.502;2023-05-14T06:21:32;10.68;;;9.00;;
58260;SDS011;44058;52.898;6.502;2023-05-14T06:23:58;17.55;;;9.38;;
58260;SDS011;44058;52.898;6.502;2023-05-14T06:26:24;14.40;;;8.82;;
58260;SDS011;44058;52.898;6.502;2023-05-14T06:28:51;11.32;;;8.20;;
58260;SDS011;44058;52.898;6.502;2023-05-14T06:31:17;10.63;;;7.57;;
58260;SDS011;44058;52.898;6.502;2023-05-14T06:33:43;15.00;;;8.55;;
58260;SDS011;44058;52.898;6.502;2023-05-14T06:36:09;10.95;;;7.90;;
58260;SDS011;44058;52.898;6.502;2023-05-14T06:38:36;15.15;;;8.35;;
58260;SDS011;44058;52.898;6.502;2023-05-14T06:41:02;14.13;;;8.13;;
58260;SDS011;44058;52.898;6.502;2023-05-14T06:43:28;15.75;;;8.23;;
58260;SDS011;44058;52.898;6.502;2023-05-14T06:45:54;14.77;;;8.60;;
58260;SDS011;44058;52.898;6.502;2023-05-14T06:48:20;14.27;;;7.80;;
58260;SDS011;44058;52.898;6.502;2023-05-14T06:50:47;11.35;;;6.80;;
58260;SDS011;44058;52.898;6.502;2023-05-14T06:53:13;14.43;;;8.23;;
58260;SDS011;44058;52.898;6.502;2023-05-14T06:55:40;12.48;;;7.45;;
58260;SDS011;44058;52.898;6.502;2023-05-14T06:58:06;14.63;;;7.93;;
58260;SDS011;44058;52.898;6.502;2023-05-14T07:00:32;12.60;;;7.55;;
58260;SDS011;44058;52.898;6.502;2023-05-14T07:02:59;15.68;;;7.22;;
58260;SDS011;44058;52.898;6.502;2023-05-14T07:05:25;12.75;;;6.88;;
58260;SDS011;44058;52.898;6.502;2023-05-14T07:07:51;11.52;;;7.35;;
58260;SDS011;44058;52.898;6.502;2023-05-14T07:10:17;13.27;;;8.13;;
58260;SDS011;44058;52.898;6.502;2023-05-14T07:12:43;10.27;;;6.50;;
58260;SDS011;44058;52.898;6.502;2023-05-14T07:15:10;8.80;;;6.68;;
58260;SDS011;44058;52.898;6.502;2023-05-14T07:17:36;11.93;;;7.03;;
58260;SDS011;44058;52.898;6.502;2023-05-14T07:20:02;14.70;;;7.30;;
58260;SDS011;44058;52.898;6.502;2023-05-14T07:22:28;12.32;;;6.82;;
58260;SDS011;44058;52.898;6.502;2023-05-14T07:24:54;13.27;;;6.53;;
58260;SDS011;44058;52.898;6.502;2023-05-14T07:27:20;11.52;;;6.78;;
58260;SDS011;44058;52.898;6.502;2023-05-14T07:29:46;12.45;;;7.07;;
58260;SDS011;44058;52.898;6.502;2023-05-14T07:32:12;13.10;;;7.18;;
58260;SDS011;44058;52.898;6.502;2023-05-14T07:34:38;13.05;;;7.45;;
58260;SDS011;44058;52.898;6.502;2023-05-14T07:37:04;12.73;;;7.65;;
58260;SDS011;44058;52.898;6.502;2023-05-14T07:39:31;14.38;;;7.10;;
58260;SDS011;44058;52.898;6.502;2023-05-14T07:41:57;13.77;;;7.82;;
58260;SDS011;44058;52.898;6.502;2023-05-14T07:44:23;13.15;;;7.95;;
58260;SDS011;44058;52.898;6.502;2023-05-14T07:46:49;13.02;;;7.65;;
58260;SDS011;44058;52.898;6.502;2023-05-14T07:49:15;12.32;;;7.72;;
58260;SDS011;44058;52.898;6.502;2023-05-14T07:51:41;12.93;;;7.25;;
58260;SDS011;44058;52.898;6.502;2023-05-14T07:54:07;12.15;;;7.28;;
58260;SDS011;44058;52.898;6.502;2023-05-14T07:56:33;14.10;;;6.68;;
58260;SDS011;44058;52.898;6.502;2023-05-14T07:58:59;10.65;;;6.20;;
58260;SDS011;44058;52.898;6.502;2023-05-14T08:01:25;13.00;;;6.35;;
58260;SDS011;44058;52.898;6.502;2023-05-14T08:03:52;10.35;;;6.00;;
58260;SDS011;44058;52.898;6.502;2023-05-14T08:06:18;7.97;;;5.93;;
58260;SDS011;44058;52.898;6.502;2023-05-14T08:08:45;11.30;;;6.38;;
58260;SDS011;44058;52.898;6.502;2023-05-14T08:11:11;9.95;;;5.97;;
58260;SDS011;44058;52.898;6.502;2023-05-14T08:13:38;12.65;;;6.32;;
58260;SDS011;44058;52.898;6.502;2023-05-14T08:16:04;10.95;;;5.35;;
58260;SDS011;44058;52.898;6.502;2023-05-14T08:18:31;10.50;;;5.93;;
58260;SDS011;44058;52.898;6.502;2023-05-14T08:20:57;11.77;;;6.25;;
58260;SDS011;44058;52.898;6.502;2023-05-14T08:23:23;8.00;;;6.20;;
58260;SDS011;44058;52.898;6.502;2023-05-14T08:25:49;8.60;;;5.53;;
58260;SDS011;44058;52.898;6.502;2023-05-14T08:28:15;7.82;;;4.72;;
58260;SDS011;44058;52.898;6.502;2023-05-14T08:30:41;10.00;;;5.70;;
58260;SDS011;44058;52.898;6.502;2023-05-14T08:33:07;9.65;;;5.10;;
58260;SDS011;44058;52.898;6.502;2023-05-14T08:35:33;10.50;;;5.70;;
58260;SDS011;44058;52.898;6.502;2023-05-14T08:37:59;12.07;;;5.65;;
58260;SDS011;44058;52.898;6.502;2023-05-14T08:40:25;9.63;;;5.13;;
58260;SDS011;44058;52.898;6.502;2023-05-14T08:42:51;9.50;;;4.70;;
58260;SDS011;44058;52.898;6.502;2023-05-14T08:45:23;9.20;;;4.68;;
58260;SDS011;44058;52.898;6.502;2023-05-14T08:47:51;10.40;;;5.20;;
58260;SDS011;44058;52.898;6.502;2023-05-14T08:50:17;7.75;;;5.75;;
58260;SDS011;44058;52.898;6.502;2023-05-14T08:52:44;8.45;;;4.75;;
58260;SDS011;44058;52.898;6.502;2023-05-14T08:55:10;11.15;;;5.28;;
58260;SDS011;44058;52.898;6.502;2023-05-14T08:57:37;10.85;;;5.22;;
58260;SDS011;44058;52.898;6.502;2023-05-14T09:00:03;8.40;;;5.20;;
58260;SDS011;44058;52.898;6.502;2023-05-14T09:02:32;8.40;;;4.88;;
58260;SDS011;44058;52.898;6.502;2023-05-14T09:05:00;7.70;;;4.40;;
58260;SDS011;44058;52.898;6.502;2023-05-14T09:07:27;12.90;;;5.63;;
58260;SDS011;44058;52.898;6.502;2023-05-14T09:09:53;10.57;;;4.90;;
58260;SDS011;44058;52.898;6.502;2023-05-14T09:12:20;10.20;;;5.07;;
58260;SDS011;44058;52.898;6.502;2023-05-14T09:14:47;9.18;;;5.22;;
58260;SDS011;44058;52.898;6.502;2023-05-14T09:17:13;10.48;;;5.40;;
58260;SDS011;44058;52.898;6.502;2023-05-14T09:19:41;10.23;;;4.70;;
58260;SDS011;44058;52.898;6.502;2023-05-14T09:22:08;9.57;;;4.95;;
58260;SDS011;44058;52.898;6.502;2023-05-14T09:24:35;9.40;;;5.05;;
58260;SDS011;44058;52.898;6.502;2023-05-14T09:27:03;10.27;;;5.43;;
58260;SDS011;44058;52.898;6.502;2023-05-14T09:29:29;8.63;;;4.97;;
58260;SDS011;44058;52.898;6.502;2023-05-14T09:31:56;9.80;;;4.90;;
58260;SDS011;44058;52.898;6.502;2023-05-14T09:34:29;10.48;;;5.25;;
58260;SDS011;44058;52.898;6.502;2023-05-14T09:39:22;9.15;;;4.95;;
58260;SDS011;44058;52.898;6.502;2023-05-14T09:41:48;8.95;;;5.57;;
58260;SDS011;44058;52.898;6.502;2023-05-14T09:44:16;8.95;;;5.13;;
58260;SDS011;44058;52.898;6.502;2023-05-14T09:46:42;7.13;;;4.78;;
58260;SDS011;44058;52.898;6.502;2023-05-14T09:49:08;9.52;;;5.38;;
58260;SDS011;44058;52.898;6.502;2023-05-14T09:51:35;16.25;;;5.10;;
58260;SDS011;44058;52.898;6.502;2023-05-14T09:54:01;8.98;;;4.78;;
58260;SDS011;44058;52.898;6.502;2023-05-14T09:56:28;9.52;;;4.80;;
58260;SDS011;44058;52.898;6.502;2023-05-14T09:58:54;8.65;;;5.18;;
58260;SDS011;44058;52.898;6.502;2023-05-14T10:01:20;6.93;;;4.30;;
58260;SDS011;44058;52.898;6.502;2023-05-14T10:03:47;10.85;;;4.90;;
58260;SDS011;44058;52.898;6.502;2023-05-14T10:06:15;7.82;;;4.18;;
58260;SDS011;44058;52.898;6.502;2023-05-14T10:08:44;7.90;;;4.65;;
58260;SDS011;44058;52.898;6.502;2023-05-14T10:11:16;7.88;;;4.30;;
58260;SDS011;44058;52.898;6.502;2023-05-14T10:13:52;7.32;;;4.95;;
58260;SDS011;44058;52.898;6.502;2023-05-14T10:16:23;9.30;;;4.35;;
58260;SDS011;44058;52.898;6.502;2023-05-14T10:18:55;7.20;;;4.28;;
58260;SDS011;44058;52.898;6.502;2023-05-14T10:21:21;8.43;;;5.50;;
58260;SDS011;44058;52.898;6.502;2023-05-14T10:23:48;13.63;;;5.28;;
58260;SDS011;44058;52.898;6.502;2023-05-14T10:26:15;9.18;;;4.72;;
58260;SDS011;44058;52.898;6.502;2023-05-14T10:28:41;8.07;;;4.47;;
58260;SDS011;44058;52.898;6.502;2023-05-14T10:31:08;9.38;;;4.72;;
58260;SDS011;44058;52.898;6.502;2023-05-14T10:33:46;8.23;;;4.88;;
58260;SDS011;44058;52.898;6.502;2023-05-14T10:36:14;9.65;;;5.20;;
58260;SDS011;44058;52.898;6.502;2023-05-14T10:38:40;6.60;;;4.10;;
58260;SDS011;44058;52.898;6.502;2023-05-14T10:41:09;8.20;;;4.82;;
58260;SDS011;44058;52.898;6.502;2023-05-14T10:43:36;6.40;;;4.53;;
58260;SDS011;44058;52.898;6.502;2023-05-14T10:46:03;5.72;;;4.25;;
58260;SDS011;44058;52.898;6.502;2023-05-14T10:48:29;7.28;;;4.93;;
58260;SDS011;44058;52.898;6.502;2023-05-14T10:50:55;7.68;;;4.57;;
58260;SDS011;44058;52.898;6.502;2023-05-14T10:53:32;10.82;;;4.88;;
58260;SDS011;44058;52.898;6.502;2023-05-14T10:56:05;5.65;;;4.28;;
58260;SDS011;44058;52.898;6.502;2023-05-14T10:58:33;7.22;;;4.00;;
58260;SDS011;44058;52.898;6.502;2023-05-14T11:01:00;8.63;;;4.13;;
58260;SDS011;44058;52.898;6.502;2023-05-14T11:03:29;5.53;;;3.92;;
58260;SDS011;44058;52.898;6.502;2023-05-14T11:05:56;8.50;;;4.22;;
58260;SDS011;44058;52.898;6.502;2023-05-14T11:08:23;6.80;;;3.75;;
58260;SDS011;44058;52.898;6.502;2023-05-14T11:10:50;4.03;;;3.42;;
58260;SDS011;44058;52.898;6.502;2023-05-14T11:13:17;6.55;;;4.32;;
58260;SDS011;44058;52.898;6.502;2023-05-14T11:15:43;6.53;;;5.05;;
58260;SDS011;44058;52.898;6.502;2023-05-14T11:18:12;8.02;;;4.50;;
58260;SDS011;44058;52.898;6.502;2023-05-14T11:20:38;8.05;;;4.18;;
58260;SDS011;44058;52.898;6.502;2023-05-14T11:23:04;8.82;;;4.18;;
58260;SDS011;44058;52.898;6.502;2023-05-14T11:25:30;8.15;;;4.40;;
58260;SDS011;44058;52.898;6.502;2023-05-14T11:27:56;6.93;;;4.13;;
58260;SDS011;44058;52.898;6.502;2023-05-14T11:30:24;5.13;;;4.00;;
58260;SDS011;44058;52.898;6.502;2023-05-14T11:32:51;5.25;;;3.65;;
58260;SDS011;44058;52.898;6.502;2023-05-14T11:35:18;7.43;;;4.00;;
58260;SDS011;44058;52.898;6.502;2023-05-14T11:37:50;5.18;;;4.05;;
58260;SDS011;44058;52.898;6.502;2023-05-14T11:40:17;6.40;;;3.83;;
58260;SDS011;44058;52.898;6.502;2023-05-14T11:42:43;5.72;;;3.53;;
58260;SDS011;44058;52.898;6.502;2023-05-14T11:45:10;6.72;;;4.40;;
58260;SDS011;44058;52.898;6.502;2023-05-14T11:47:36;8.80;;;4.78;;
58260;SDS011;44058;52.898;6.502;2023-05-14T11:50:02;8.65;;;4.35;;
58260;SDS011;44058;52.898;6.502;2023-05-14T11:52:29;6.65;;;4.22;;
58260;SDS011;44058;52.898;6.502;2023-05-14T11:54:55;6.35;;;4.00;;
58260;SDS011;44058;52.898;6.502;2023-05-14T11:57:21;7.30;;;3.90;;
58260;SDS011;44058;52.898;6.502;2023-05-14T11:59:48;5.90;;;3.65;;
58260;SDS011;44058;52.898;6.502;2023-05-14T12:02:15;4.28;;;3.58;;
58260;SDS011;44058;52.898;6.502;2023-05-14T12:04:42;5.03;;;3.40;;
58260;SDS011;44058;52.898;6.502;2023-05-14T12:09:36;5.57;;;3.42;;
58260;SDS011;44058;52.898;6.502;2023-05-14T12:12:08;7.05;;;3.90;;
58260;SDS011;44058;52.898;6.502;2023-05-14T12:14:40;7.75;;;3.40;;
58260;SDS011;44058;52.898;6.502;2023-05-14T12:17:10;5.45;;;3.65;;
58260;SDS011;44058;52.898;6.502;2023-05-14T12:19:38;5.05;;;3.10;;
58260;SDS011;44058;52.898;6.502;2023-05-14T12:22:06;5.82;;;3.35;;
58260;SDS011;44058;52.898;6.502;2023-05-14T12:24:32;7.28;;;3.53;;
58260;SDS011;44058;52.898;6.502;2023-05-14T12:26:59;6.38;;;3.45;;
58260;SDS011;44058;52.898;6.502;2023-05-14T12:29:25;4.90;;;3.05;;
58260;SDS011;44058;52.898;6.502;2023-05-14T12:31:51;3.85;;;2.70;;
58260;SDS011;44058;52.898;6.502;2023-05-14T12:34:18;4.50;;;2.97;;
58260;SDS011;44058;52.898;6.502;2023-05-14T12:36:44;8.40;;;3.35;;
58260;SDS011;44058;52.898;6.502;2023-05-14T12:39:10;5.25;;;3.40;;
58260;SDS011;44058;52.898;6.502;2023-05-14T12:41:36;4.32;;;3.00;;
58260;SDS011;44058;52.898;6.502;2023-05-14T12:44:03;3.38;;;2.72;;
58260;SDS011;44058;52.898;6.502;2023-05-14T12:46:29;4.97;;;3.00;;
58260;SDS011;44058;52.898;6.502;2023-05-14T12:48:56;4.47;;;2.83;;
58260;SDS011;44058;52.898;6.502;2023-05-14T12:51:22;5.60;;;2.80;;
58260;SDS011;44058;52.898;6.502;2023-05-14T12:53:48;6.43;;;2.83;;
58260;SDS011;44058;52.898;6.502;2023-05-14T12:56:15;3.07;;;2.77;;
58260;SDS011;44058;52.898;6.502;2023-05-14T12:58:41;5.22;;;2.60;;
58260;SDS011;44058;52.898;6.502;2023-05-14T13:01:07;5.93;;;2.60;;
58260;SDS011;44058;52.898;6.502;2023-05-14T13:03:33;4.75;;;2.67;;
58260;SDS011;44058;52.898;6.502;2023-05-14T13:05:59;7.55;;;2.67;;
58260;SDS011;44058;52.898;6.502;2023-05-14T13:08:25;4.05;;;2.60;;
58260;SDS011;44058;52.898;6.502;2023-05-14T13:10:53;5.05;;;2.65;;
58260;SDS011;44058;52.898;6.502;2023-05-14T13:13:20;3.70;;;2.65;;
58260;SDS011;44058;52.898;6.502;2023-05-14T13:15:46;7.07;;;2.60;;
58260;SDS011;44058;52.898;6.502;2023-05-14T13:18:12;5.90;;;3.10;;
58260;SDS011;44058;52.898;6.502;2023-05-14T13:20:38;4.28;;;2.90;;
58260;SDS011;44058;52.898;6.502;2023-05-14T13:23:05;5.75;;;2.92;;
58260;SDS011;44058;52.898;6.502;2023-05-14T13:25:31;5.68;;;2.70;;
58260;SDS011;44058;52.898;6.502;2023-05-14T13:27:57;9.57;;;2.90;;
58260;SDS011;44058;52.898;6.502;2023-05-14T13:30:23;5.07;;;2.72;;
58260;SDS011;44058;52.898;6.502;2023-05-14T13:32:49;5.85;;;2.72;;
58260;SDS011;44058;52.898;6.502;2023-05-14T13:35:15;4.03;;;2.60;;
58260;SDS011;44058;52.898;6.502;2023-05-14T13:37:42;5.80;;;3.05;;
58260;SDS011;44058;52.898;6.502;2023-05-14T13:40:09;6.32;;;2.95;;
58260;SDS011;44058;52.898;6.502;2023-05-14T13:42:35;3.30;;;2.70;;
58260;SDS011;44058;52.898;6.502;2023-05-14T13:45:01;3.92;;;2.75;;
58260;SDS011;44058;52.898;6.502;2023-05-14T13:47:28;4.63;;;3.28;;
58260;SDS011;44058;52.898;6.502;2023-05-14T13:49:54;4.35;;;3.05;;
58260;SDS011;44058;52.898;6.502;2023-05-14T13:52:20;5.95;;;2.70;;
58260;SDS011;44058;52.898;6.502;2023-05-14T13:54:47;3.40;;;2.80;;
58260;SDS011;44058;52.898;6.502;2023-05-14T13:57:13;4.25;;;2.60;;
58260;SDS011;44058;52.898;6.502;2023-05-14T13:59:39;4.07;;;2.80;;
58260;SDS011;44058;52.898;6.502;2023-05-14T14:02:06;3.53;;;2.80;;
58260;SDS011;44058;52.898;6.502;2023-05-14T14:04:32;6.60;;;2.97;;
58260;SDS011;44058;52.898;6.502;2023-05-14T14:06:58;4.35;;;3.08;;
58260;SDS011;44058;52.898;6.502;2023-05-14T14:09:24;3.65;;;2.63;;
58260;SDS011;44058;52.898;6.502;2023-05-14T14:11:51;4.57;;;2.58;;
58260;SDS011;44058;52.898;6.502;2023-05-14T14:14:17;5.50;;;2.70;;
58260;SDS011;44058;52.898;6.502;2023-05-14T14:16:43;4.15;;;2.85;;
58260;SDS011;44058;52.898;6.502;2023-05-14T14:19:09;7.57;;;2.97;;
58260;SDS011;44058;52.898;6.502;2023-05-14T14:21:35;4.80;;;2.72;;
58260;SDS011;44058;52.898;6.502;2023-05-14T14:24:04;6.20;;;2.55;;
58260;SDS011;44058;52.898;6.502;2023-05-14T14:26:30;2.80;;;2.45;;
58260;SDS011;44058;52.898;6.502;2023-05-14T14:28:56;3.08;;;2.58;;
58260;SDS011;44058;52.898;6.502;2023-05-14T14:31:22;3.15;;;2.55;;
58260;SDS011;44058;52.898;6.502;2023-05-14T14:33:49;4.90;;;3.00;;
58260;SDS011;44058;52.898;6.502;2023-05-14T14:36:15;4.55;;;3.03;;
58260;SDS011;44058;52.898;6.502;2023-05-14T14:38:41;5.28;;;2.45;;
58260;SDS011;44058;52.898;6.502;2023-05-14T14:41:07;4.10;;;2.88;;
58260;SDS011;44058;52.898;6.502;2023-05-14T14:43:35;3.65;;;3.10;;
58260;SDS011;44058;52.898;6.502;2023-05-14T14:46:01;7.32;;;3.03;;
58260;SDS011;44058;52.898;6.502;2023-05-14T14:48:31;4.45;;;2.75;;
58260;SDS011;44058;52.898;6.502;2023-05-14T14:51:04;7.10;;;2.80;;